sensor_id;sensor_type;location;lat;lon;timestamp;temperature;humidity
26621;DHT22;14253;44.840;10.444;2023-10-31T00:00:36;16.80;99.90
26621;DHT22;14253;44.840;10.444;2023-10-31T00:03:02;16.70;99.90
26621;DHT22;14253;44.840;10.444;2023-10-31T00:05:28;16.90;99.90
26621;DHT22;14253;44.840;10.444;2023-10-31T00:07:54;17.20;99.90
26621;DHT22;14253;44.840;10.444;2023-10-31T00:10:20;17.10;99.90
26621;DHT22;14253;44.840;10.444;2023-10-31T00:12:45;17.20;99.90
26621;DHT22;14253;44.840;10.444;2023-10-31T00:15:11;17.30;99.90
26621;DHT22;14253;44.840;10.444;2023-10-31T00:17:37;17.20;99.90
26621;DHT22;14253;44.840;10.444;2023-10-31T00:20:04;17.80;99.90
26621;DHT22;14253;44.840;10.444;2023-10-31T00:22:30;17.90;99.90
26621;DHT22;14253;44.840;10.444;2023-10-31T00:24:56;17.80;99.90
26621;DHT22;14253;44.840;10.444;2023-10-31T00:27:22;17.70;99.90
26621;DHT22;14253;44.840;10.444;2023-10-31T00:29:48;17.50;99.90
26621;DHT22;14253;44.840;10.444;2023-10-31T00:32:14;17.50;99.90
26621;DHT22;14253;44.840;10.444;2023-10-31T00:34:40;17.40;99.90
26621;DHT22;14253;44.840;10.444;2023-10-31T00:37:06;17.20;99.90
26621;DHT22;14253;44.840;10.444;2023-10-31T00:39:32;17.10;99.90
26621;DHT22;14253;44.840;10.444;2023-10-31T00:41:59;16.90;99.90
26621;DHT22;14253;44.840;10.444;2023-10-31T00:44:25;16.70;99.90
26621;DHT22;14253;44.840;10.444;2023-10-31T00:46:51;16.50;99.90
26621;DHT22;14253;44.840;10.444;2023-10-31T00:49:17;16.50;99.90
26621;DHT22;14253;44.840;10.444;2023-10-31T00:51:43;16.50;99.90
26621;DHT22;14253;44.840;10.444;2023-10-31T00:54:09;16.40;99.90
26621;DHT22;14253;44.840;10.444;2023-10-31T00:56:35;16.40;99.90
26621;DHT22;14253;44.840;10.444;2023-10-31T00:59:01;17.00;99.90
26621;DHT22;14253;44.840;10.444;2023-10-31T01:01:27;17.40;99.90
26621;DHT22;14253;44.840;10.444;2023-10-31T01:03:53;17.60;99.90
26621;DHT22;14253;44.840;10.444;2023-10-31T01:06:19;17.70;99.90
26621;DHT22;14253;44.840;10.444;2023-10-31T01:08:45;17.70;99.90
26621;DHT22;14253;44.840;10.444;2023-10-31T01:11:11;17.70;99.90
26621;DHT22;14253;44.840;10.444;2023-10-31T01:13:37;17.60;99.90
26621;DHT22;14253;44.840;10.444;2023-10-31T01:16:03;17.60;99.90
26621;DHT22;14253;44.840;10.444;2023-10-31T01:18:30;17.40;99.90
26621;DHT22;14253;44.840;10.444;2023-10-31T01:20:56;17.30;99.90
26621;DHT22;14253;44.840;10.444;2023-10-31T01:23:22;17.20;99.90
26621;DHT22;14253;44.840;10.444;2023-10-31T01:25:48;17.10;99.90
26621;DHT22;14253;44.840;10.444;2023-10-31T01:28:14;16.80;99.90
26621;DHT22;14253;44.840;10.444;2023-10-31T01:30:40;16.60;99.90
26621;DHT22;14253;44.840;10.444;2023-10-31T01:33:06;16.40;99.90
26621;DHT22;14253;44.840;10.444;2023-10-31T01:35:32;16.10;99.90
26621;DHT22;14253;44.840;10.444;2023-10-31T01:37:58;16.00;99.90
26621;DHT22;14253;44.840;10.444;2023-10-31T01:40:24;15.80;99.90
26621;DHT22;14253;44.840;10.444;2023-10-31T01:42:50;15.60;99.90
26621;DHT22;14253;44.840;10.444;2023-10-31T01:45:16;15.60;99.90
26621;DHT22;14253;44.840;10.444;2023-10-31T01:47:43;15.50;99.90
26621;DHT22;14253;44.840;10.444;2023-10-31T01:50:11;15.40;99.90
26621;DHT22;14253;44.840;10.444;2023-10-31T01:52:37;15.40;99.90
26621;DHT22;14253;44.840;10.444;2023-10-31T01:55:04;15.40;99.90
26621;DHT22;14253;44.840;10.444;2023-10-31T01:57:30;15.30;99.90
26621;DHT22;14253;44.840;10.444;2023-10-31T01:59:57;15.30;99.90
26621;DHT22;14253;44.840;10.444;2023-10-31T02:02:23;15.30;99.90
26621;DHT22;14253;44.840;10.444;2023-10-31T02:04:51;15.30;99.90
26621;DHT22;14253;44.840;10.444;2023-10-31T02:07:16;15.20;99.90
26621;DHT22;14253;44.840;10.444;2023-10-31T02:09:43;15.20;99.90
26621;DHT22;14253;44.840;10.444;2023-10-31T02:12:08;15.30;99.90
26621;DHT22;14253;44.840;10.444;2023-10-31T02:14:34;15.40;99.90
26621;DHT22;14253;44.840;10.444;2023-10-31T02:17:00;15.70;99.90
26621;DHT22;14253;44.840;10.444;2023-10-31T02:19:26;15.90;99.90
26621;DHT22;14253;44.840;10.444;2023-10-31T02:21:52;16.20;99.90
26621;DHT22;14253;44.840;10.444;2023-10-31T02:24:18;16.30;99.90
26621;DHT22;14253;44.840;10.444;2023-10-31T02:26:44;16.30;99.90
26621;DHT22;14253;44.840;10.444;2023-10-31T02:29:10;16.40;99.90
26621;DHT22;14253;44.840;10.444;2023-10-31T02:31:36;16.50;99.90
26621;DHT22;14253;44.840;10.444;2023-10-31T02:34:02;16.60;99.90
26621;DHT22;14253;44.840;10.444;2023-10-31T02:36:28;16.70;99.90
26621;DHT22;14253;44.840;10.444;2023-10-31T02:38:54;16.90;99.90
26621;DHT22;14253;44.840;10.444;2023-10-31T02:41:20;17.00;99.90
26621;DHT22;14253;44.840;10.444;2023-10-31T02:43:46;17.20;99.90
26621;DHT22;14253;44.840;10.444;2023-10-31T02:46:12;17.30;99.90
26621;DHT22;14253;44.840;10.444;2023-10-31T02:48:39;17.40;99.90
26621;DHT22;14253;44.840;10.444;2023-10-31T02:51:06;17.50;99.90
26621;DHT22;14253;44.840;10.444;2023-10-31T02:53:35;17.60;99.90
26621;DHT22;14253;44.840;10.444;2023-10-31T02:56:02;17.60;99.90
26621;DHT22;14253;44.840;10.444;2023-10-31T02:58:28;17.60;99.90
26621;DHT22;14253;44.840;10.444;2023-10-31T03:00:54;17.60;99.90
26621;DHT22;14253;44.840;10.444;2023-10-31T03:03:20;17.60;99.90
26621;DHT22;14253;44.840;10.444;2023-10-31T03:05:46;17.60;99.90
26621;DHT22;14253;44.840;10.444;2023-10-31T03:08:12;17.60;99.90
26621;DHT22;14253;44.840;10.444;2023-10-31T03:10:38;17.40;99.90
26621;DHT22;14253;44.840;10.444;2023-10-31T03:13:05;17.30;99.90
26621;DHT22;14253;44.840;10.444;2023-10-31T03:15:31;17.20;99.90
26621;DHT22;14253;44.840;10.444;2023-10-31T03:17:57;17.10;99.90
26621;DHT22;14253;44.840;10.444;2023-10-31T03:20:23;17.10;99.90
26621;DHT22;14253;44.840;10.444;2023-10-31T03:22:49;17.10;99.90
26621;DHT22;14253;44.840;10.444;2023-10-31T03:25:15;17.10;99.90
26621;DHT22;14253;44.840;10.444;2023-10-31T03:27:40;17.00;99.90
26621;DHT22;14253;44.840;10.444;2023-10-31T03:30:07;17.00;99.90
26621;DHT22;14253;44.840;10.444;2023-10-31T03:32:33;17.00;99.90
26621;DHT22;14253;44.840;10.444;2023-10-31T03:34:59;17.00;99.90
26621;DHT22;14253;44.840;10.444;2023-10-31T03:37:25;17.00;99.90
26621;DHT22;14253;44.840;10.444;2023-10-31T03:39:51;17.00;99.90
26621;DHT22;14253;44.840;10.444;2023-10-31T03:42:16;17.00;99.90
26621;DHT22;14253;44.840;10.444;2023-10-31T03:44:42;17.00;99.90
26621;DHT22;14253;44.840;10.444;2023-10-31T03:47:08;17.00;99.90
26621;DHT22;14253;44.840;10.444;2023-10-31T03:49:39;17.00;99.90
26621;DHT22;14253;44.840;10.444;2023-10-31T03:52:05;17.10;99.90
26621;DHT22;14253;44.840;10.444;2023-10-31T03:54:31;17.20;99.90
26621;DHT22;14253;44.840;10.444;2023-10-31T03:56:57;17.20;99.90
26621;DHT22;14253;44.840;10.444;2023-10-31T03:59:23;17.20;99.90
26621;DHT22;14253;44.840;10.444;2023-10-31T04:01:49;17.00;99.90
26621;DHT22;14253;44.840;10.444;2023-10-31T04:04:15;16.70;99.90
26621;DHT22;14253;44.840;10.444;2023-10-31T04:06:41;16.50;99.90
26621;DHT22;14253;44.840;10.444;2023-10-31T04:09:07;16.30;99.90
26621;DHT22;14253;44.840;10.444;2023-10-31T04:11:33;16.00;99.90
26621;DHT22;14253;44.840;10.444;2023-10-31T04:13:59;15.80;99.90
26621;DHT22;14253;44.840;10.444;2023-10-31T04:16:25;15.80;99.90
26621;DHT22;14253;44.840;10.444;2023-10-31T04:18:51;15.70;99.90
26621;DHT22;14253;44.840;10.444;2023-10-31T04:21:17;15.50;99.90
26621;DHT22;14253;44.840;10.444;2023-10-31T04:23:43;15.50;99.90
26621;DHT22;14253;44.840;10.444;2023-10-31T04:26:09;15.60;99.90
26621;DHT22;14253;44.840;10.444;2023-10-31T04:28:35;15.70;99.90
26621;DHT22;14253;44.840;10.444;2023-10-31T04:31:00;15.70;99.90
26621;DHT22;14253;44.840;10.444;2023-10-31T04:33:26;15.80;99.90
26621;DHT22;14253;44.840;10.444;2023-10-31T04:35:52;15.90;99.90
26621;DHT22;14253;44.840;10.444;2023-10-31T04:38:18;16.10;99.90
26621;DHT22;14253;44.840;10.444;2023-10-31T04:40:44;16.30;99.90
26621;DHT22;14253;44.840;10.444;2023-10-31T04:43:10;16.30;99.90
26621;DHT22;14253;44.840;10.444;2023-10-31T04:45:36;16.30;99.90
26621;DHT22;14253;44.840;10.444;2023-10-31T04:48:02;16.20;99.90
26621;DHT22;14253;44.840;10.444;2023-10-31T04:50:28;16.10;99.90
26621;DHT22;14253;44.840;10.444;2023-10-31T04:52:54;16.00;99.90
26621;DHT22;14253;44.840;10.444;2023-10-31T04:55:20;15.90;99.90
26621;DHT22;14253;44.840;10.444;2023-10-31T04:57:46;15.70;99.90
26621;DHT22;14253;44.840;10.444;2023-10-31T05:00:12;15.60;99.90
26621;DHT22;14253;44.840;10.444;2023-10-31T05:02:38;15.60;99.90
26621;DHT22;14253;44.840;10.444;2023-10-31T05:05:04;15.60;99.90
26621;DHT22;14253;44.840;10.444;2023-10-31T05:07:30;15.70;99.90
26621;DHT22;14253;44.840;10.444;2023-10-31T05:09:58;15.90;99.90
26621;DHT22;14253;44.840;10.444;2023-10-31T05:12:25;16.30;99.90
26621;DHT22;14253;44.840;10.444;2023-10-31T05:14:51;16.40;99.90
26621;DHT22;14253;44.840;10.444;2023-10-31T05:17:17;16.50;99.90
26621;DHT22;14253;44.840;10.444;2023-10-31T05:19:42;16.50;99.90
26621;DHT22;14253;44.840;10.444;2023-10-31T05:22:08;16.50;99.90
26621;DHT22;14253;44.840;10.444;2023-10-31T05:24:35;16.40;99.90
26621;DHT22;14253;44.840;10.444;2023-10-31T05:27:02;16.40;99.90
26621;DHT22;14253;44.840;10.444;2023-10-31T05:29:28;16.50;99.90
26621;DHT22;14253;44.840;10.444;2023-10-31T05:31:55;16.60;99.90
26621;DHT22;14253;44.840;10.444;2023-10-31T05:34:21;16.60;99.90
26621;DHT22;14253;44.840;10.444;2023-10-31T05:36:48;16.70;99.90
26621;DHT22;14253;44.840;10.444;2023-10-31T05:39:14;16.50;99.90
26621;DHT22;14253;44.840;10.444;2023-10-31T05:41:41;16.40;99.90
26621;DHT22;14253;44.840;10.444;2023-10-31T05:44:07;16.40;99.90
26621;DHT22;14253;44.840;10.444;2023-10-31T05:46:40;16.40;99.90
26621;DHT22;14253;44.840;10.444;2023-10-31T05:49:07;16.50;99.90
26621;DHT22;14253;44.840;10.444;2023-10-31T05:51:33;16.50;99.90
26621;DHT22;14253;44.840;10.444;2023-10-31T05:54:01;16.50;99.90
26621;DHT22;14253;44.840;10.444;2023-10-31T05:56:27;16.60;99.90
26621;DHT22;14253;44.840;10.444;2023-10-31T05:58:53;16.60;99.90
26621;DHT22;14253;44.840;10.444;2023-10-31T06:01:19;16.70;99.90
26621;DHT22;14253;44.840;10.444;2023-10-31T06:03:45;16.70;99.90
26621;DHT22;14253;44.840;10.444;2023-10-31T06:06:11;16.70;99.90
26621;DHT22;14253;44.840;10.444;2023-10-31T06:08:38;16.70;99.90
26621;DHT22;14253;44.840;10.444;2023-10-31T06:11:04;16.80;99.90
26621;DHT22;14253;44.840;10.444;2023-10-31T06:13:30;16.70;99.90
26621;DHT22;14253;44.840;10.444;2023-10-31T06:15:57;16.80;99.90
26621;DHT22;14253;44.840;10.444;2023-10-31T06:18:26;16.90;99.90
26621;DHT22;14253;44.840;10.444;2023-10-31T06:20:54;16.90;99.90
26621;DHT22;14253;44.840;10.444;2023-10-31T06:23:20;16.80;99.90
26621;DHT22;14253;44.840;10.444;2023-10-31T06:25:46;16.70;99.90
26621;DHT22;14253;44.840;10.444;2023-10-31T06:28:12;16.70;99.90
26621;DHT22;14253;44.840;10.444;2023-10-31T06:30:38;16.60;99.90
26621;DHT22;14253;44.840;10.444;2023-10-31T06:33:04;16.60;99.90
26621;DHT22;14253;44.840;10.444;2023-10-31T06:35:30;15.90;99.90
26621;DHT22;14253;44.840;10.444;2023-10-31T06:37:56;15.10;99.90
26621;DHT22;14253;44.840;10.444;2023-10-31T06:40:25;14.50;99.90
26621;DHT22;14253;44.840;10.444;2023-10-31T06:42:51;14.10;99.90
26621;DHT22;14253;44.840;10.444;2023-10-31T06:45:17;14.00;99.90
26621;DHT22;14253;44.840;10.444;2023-10-31T06:47:43;13.90;99.90
26621;DHT22;14253;44.840;10.444;2023-10-31T06:50:09;13.90;99.90
26621;DHT22;14253;44.840;10.444;2023-10-31T06:52:35;13.70;99.90
26621;DHT22;14253;44.840;10.444;2023-10-31T06:55:01;13.60;99.90
26621;DHT22;14253;44.840;10.444;2023-10-31T06:57:28;13.50;99.90
26621;DHT22;14253;44.840;10.444;2023-10-31T06:59:54;13.30;99.90
26621;DHT22;14253;44.840;10.444;2023-10-31T07:02:20;13.00;99.90
26621;DHT22;14253;44.840;10.444;2023-10-31T07:04:46;13.00;99.90
26621;DHT22;14253;44.840;10.444;2023-10-31T07:07:11;13.00;99.90
26621;DHT22;14253;44.840;10.444;2023-10-31T07:09:37;13.00;99.90
26621;DHT22;14253;44.840;10.444;2023-10-31T07:12:03;12.90;99.90
26621;DHT22;14253;44.840;10.444;2023-10-31T07:14:29;12.80;99.90
26621;DHT22;14253;44.840;10.444;2023-10-31T07:16:56;12.70;99.90
26621;DHT22;14253;44.840;10.444;2023-10-31T07:19:22;12.60;99.90
26621;DHT22;14253;44.840;10.444;2023-10-31T07:21:48;12.60;99.90
26621;DHT22;14253;44.840;10.444;2023-10-31T07:24:14;12.60;99.90
26621;DHT22;14253;44.840;10.444;2023-10-31T07:26:40;12.50;99.90
26621;DHT22;14253;44.840;10.444;2023-10-31T07:29:06;12.50;99.90
26621;DHT22;14253;44.840;10.444;2023-10-31T07:31:32;12.50;99.90
26621;DHT22;14253;44.840;10.444;2023-10-31T07:33:58;12.50;99.90
26621;DHT22;14253;44.840;10.444;2023-10-31T07:36:24;12.60;99.90
26621;DHT22;14253;44.840;10.444;2023-10-31T07:38:50;12.60;99.90
26621;DHT22;14253;44.840;10.444;2023-10-31T07:41:16;12.70;99.90
26621;DHT22;14253;44.840;10.444;2023-10-31T07:43:42;12.80;99.90
26621;DHT22;14253;44.840;10.444;2023-10-31T07:46:08;12.90;99.90
26621;DHT22;14253;44.840;10.444;2023-10-31T07:48:34;13.00;99.90
26621;DHT22;14253;44.840;10.444;2023-10-31T07:51:00;13.10;99.90
26621;DHT22;14253;44.840;10.444;2023-10-31T07:53:26;13.20;99.90
26621;DHT22;14253;44.840;10.444;2023-10-31T07:55:52;13.30;99.90
26621;DHT22;14253;44.840;10.444;2023-10-31T07:58:17;13.40;99.90
26621;DHT22;14253;44.840;10.444;2023-10-31T08:00:44;13.40;99.90
26621;DHT22;14253;44.840;10.444;2023-10-31T08:03:10;13.50;99.90
26621;DHT22;14253;44.840;10.444;2023-10-31T08:05:36;13.60;99.90
26621;DHT22;14253;44.840;10.444;2023-10-31T08:08:02;13.70;99.90
26621;DHT22;14253;44.840;10.444;2023-10-31T08:10:27;13.80;99.90
26621;DHT22;14253;44.840;10.444;2023-10-31T08:12:53;14.00;99.90
26621;DHT22;14253;44.840;10.444;2023-10-31T08:15:19;14.10;99.90
26621;DHT22;14253;44.840;10.444;2023-10-31T08:17:45;14.10;99.90
26621;DHT22;14253;44.840;10.444;2023-10-31T08:20:11;14.10;99.90
26621;DHT22;14253;44.840;10.444;2023-10-31T08:22:39;14.10;99.90
26621;DHT22;14253;44.840;10.444;2023-10-31T08:25:05;14.00;99.90
26621;DHT22;14253;44.840;10.444;2023-10-31T08:27:31;14.10;99.90
26621;DHT22;14253;44.840;10.444;2023-10-31T08:29:57;14.10;99.90
26621;DHT22;14253;44.840;10.444;2023-10-31T08:32:23;14.10;99.90
26621;DHT22;14253;44.840;10.444;2023-10-31T08:34:50;14.10;99.90
26621;DHT22;14253;44.840;10.444;2023-10-31T08:37:16;14.10;99.90
26621;DHT22;14253;44.840;10.444;2023-10-31T08:39:42;14.10;99.90
26621;DHT22;14253;44.840;10.444;2023-10-31T08:42:08;14.10;99.90
26621;DHT22;14253;44.840;10.444;2023-10-31T08:44:35;14.20;99.90
26621;DHT22;14253;44.840;10.444;2023-10-31T08:47:03;14.30;99.90
26621;DHT22;14253;44.840;10.444;2023-10-31T08:49:29;14.50;99.90
26621;DHT22;14253;44.840;10.444;2023-10-31T08:51:55;14.70;99.90
26621;DHT22;14253;44.840;10.444;2023-10-31T08:54:21;14.80;99.90
26621;DHT22;14253;44.840;10.444;2023-10-31T08:56:47;14.90;99.90
26621;DHT22;14253;44.840;10.444;2023-10-31T08:59:13;15.10;99.90
26621;DHT22;14253;44.840;10.444;2023-10-31T09:01:39;15.20;99.90
26621;DHT22;14253;44.840;10.444;2023-10-31T09:04:05;15.30;99.90
26621;DHT22;14253;44.840;10.444;2023-10-31T09:06:31;15.40;99.90
26621;DHT22;14253;44.840;10.444;2023-10-31T09:08:57;15.50;99.90
26621;DHT22;14253;44.840;10.444;2023-10-31T09:11:23;15.70;99.90
26621;DHT22;14253;44.840;10.444;2023-10-31T09:13:49;15.80;99.90
26621;DHT22;14253;44.840;10.444;2023-10-31T09:16:15;15.90;99.90
26621;DHT22;14253;44.840;10.444;2023-10-31T09:18:41;16.00;99.90
26621;DHT22;14253;44.840;10.444;2023-10-31T09:21:09;16.00;99.90
26621;DHT22;14253;44.840;10.444;2023-10-31T09:23:35;16.00;99.90
26621;DHT22;14253;44.840;10.444;2023-10-31T09:26:01;16.10;99.90
26621;DHT22;14253;44.840;10.444;2023-10-31T09:28:28;16.20;99.90
26621;DHT22;14253;44.840;10.444;2023-10-31T09:30:54;16.30;99.90
26621;DHT22;14253;44.840;10.444;2023-10-31T09:33:20;16.30;99.90
26621;DHT22;14253;44.840;10.444;2023-10-31T09:35:46;16.30;99.90
26621;DHT22;14253;44.840;10.444;2023-10-31T09:38:12;16.30;99.90
26621;DHT22;14253;44.840;10.444;2023-10-31T09:40:38;16.30;99.90
26621;DHT22;14253;44.840;10.444;2023-10-31T09:43:04;16.30;99.90
26621;DHT22;14253;44.840;10.444;2023-10-31T09:45:30;16.40;99.90
26621;DHT22;14253;44.840;10.444;2023-10-31T09:47:58;16.50;99.90
26621;DHT22;14253;44.840;10.444;2023-10-31T09:50:26;16.60;99.90
26621;DHT22;14253;44.840;10.444;2023-10-31T09:52:52;16.50;99.90
26621;DHT22;14253;44.840;10.444;2023-10-31T09:55:18;16.50;99.90
26621;DHT22;14253;44.840;10.444;2023-10-31T09:57:45;16.60;99.90
26621;DHT22;14253;44.840;10.444;2023-10-31T10:00:12;16.60;99.90
26621;DHT22;14253;44.840;10.444;2023-10-31T10:02:38;16.60;99.90
26621;DHT22;14253;44.840;10.444;2023-10-31T10:05:04;16.60;99.90
26621;DHT22;14253;44.840;10.444;2023-10-31T10:07:34;16.70;99.90
26621;DHT22;14253;44.840;10.444;2023-10-31T10:10:01;16.70;99.90
26621;DHT22;14253;44.840;10.444;2023-10-31T10:12:27;16.70;99.90
26621;DHT22;14253;44.840;10.444;2023-10-31T10:14:53;16.80;99.90
26621;DHT22;14253;44.840;10.444;2023-10-31T10:17:23;16.90;99.90
26621;DHT22;14253;44.840;10.444;2023-10-31T10:20:10;16.90;99.90
26621;DHT22;14253;44.840;10.444;2023-10-31T10:22:41;16.90;99.90
26621;DHT22;14253;44.840;10.444;2023-10-31T10:25:11;17.00;99.90
26621;DHT22;14253;44.840;10.444;2023-10-31T10:27:39;17.20;99.90
26621;DHT22;14253;44.840;10.444;2023-10-31T10:30:08;17.20;99.90
26621;DHT22;14253;44.840;10.444;2023-10-31T10:32:34;17.30;99.90
26621;DHT22;14253;44.840;10.444;2023-10-31T10:35:00;17.40;99.90
26621;DHT22;14253;44.840;10.444;2023-10-31T10:37:27;17.50;99.90
26621;DHT22;14253;44.840;10.444;2023-10-31T10:39:54;17.50;99.90
26621;DHT22;14253;44.840;10.444;2023-10-31T10:42:33;17.60;99.90
26621;DHT22;14253;44.840;10.444;2023-10-31T10:45:04;17.60;99.90
26621;DHT22;14253;44.840;10.444;2023-10-31T10:47:31;17.70;99.90
26621;DHT22;14253;44.840;10.444;2023-10-31T10:49:59;17.90;99.90
26621;DHT22;14253;44.840;10.444;2023-10-31T10:52:38;18.00;99.90
26621;DHT22;14253;44.840;10.444;2023-10-31T10:55:23;18.10;99.90
26621;DHT22;14253;44.840;10.444;2023-10-31T10:58:04;18.20;99.90
26621;DHT22;14253;44.840;10.444;2023-10-31T11:00:31;18.30;99.90
26621;DHT22;14253;44.840;10.444;2023-10-31T11:02:57;18.30;99.90
26621;DHT22;14253;44.840;10.444;2023-10-31T11:05:24;18.30;99.90
26621;DHT22;14253;44.840;10.444;2023-10-31T11:07:51;18.40;99.90
26621;DHT22;14253;44.840;10.444;2023-10-31T11:10:18;18.40;99.90
26621;DHT22;14253;44.840;10.444;2023-10-31T11:12:44;18.50;99.90
26621;DHT22;14253;44.840;10.444;2023-10-31T11:15:14;18.60;99.90
26621;DHT22;14253;44.840;10.444;2023-10-31T11:17:44;18.70;99.90
26621;DHT22;14253;44.840;10.444;2023-10-31T11:20:12;18.70;99.90
26621;DHT22;14253;44.840;10.444;2023-10-31T11:22:43;18.80;99.90
26621;DHT22;14253;44.840;10.444;2023-10-31T11:25:12;18.90;99.90
26621;DHT22;14253;44.840;10.444;2023-10-31T11:27:38;19.10;99.90
26621;DHT22;14253;44.840;10.444;2023-10-31T11:30:29;19.20;99.90
26621;DHT22;14253;44.840;10.444;2023-10-31T11:32:58;19.40;99.90
26621;DHT22;14253;44.840;10.444;2023-10-31T11:35:25;19.50;99.90
26621;DHT22;14253;44.840;10.444;2023-10-31T11:38:02;19.60;99.90
26621;DHT22;14253;44.840;10.444;2023-10-31T11:40:29;19.70;99.90
26621;DHT22;14253;44.840;10.444;2023-10-31T11:43:03;19.90;99.90
26621;DHT22;14253;44.840;10.444;2023-10-31T11:45:41;20.00;99.90
26621;DHT22;14253;44.840;10.444;2023-10-31T11:48:08;20.10;99.90
26621;DHT22;14253;44.840;10.444;2023-10-31T11:50:36;20.10;99.90
26621;DHT22;14253;44.840;10.444;2023-10-31T11:53:06;20.20;99.90
26621;DHT22;14253;44.840;10.444;2023-10-31T11:55:33;20.30;99.90
26621;DHT22;14253;44.840;10.444;2023-10-31T11:58:14;20.30;99.90
26621;DHT22;14253;44.840;10.444;2023-10-31T12:00:40;20.40;99.90
26621;DHT22;14253;44.840;10.444;2023-10-31T12:03:05;20.40;99.90
26621;DHT22;14253;44.840;10.444;2023-10-31T12:05:31;20.30;99.90
26621;DHT22;14253;44.840;10.444;2023-10-31T12:07:57;20.30;99.90
26621;DHT22;14253;44.840;10.444;2023-10-31T12:10:28;20.30;99.90
26621;DHT22;14253;44.840;10.444;2023-10-31T12:12:57;20.30;99.90
26621;DHT22;14253;44.840;10.444;2023-10-31T12:15:24;20.40;99.90
26621;DHT22;14253;44.840;10.444;2023-10-31T12:17:50;20.40;99.90
26621;DHT22;14253;44.840;10.444;2023-10-31T12:20:16;20.40;99.90
26621;DHT22;14253;44.840;10.444;2023-10-31T12:22:43;20.40;99.90
26621;DHT22;14253;44.840;10.444;2023-10-31T12:25:10;20.60;99.90
26621;DHT22;14253;44.840;10.444;2023-10-31T12:27:47;20.50;99.90
26621;DHT22;14253;44.840;10.444;2023-10-31T12:30:19;20.60;99.90
26621;DHT22;14253;44.840;10.444;2023-10-31T12:32:47;20.70;99.90
26621;DHT22;14253;44.840;10.444;2023-10-31T12:35:21;20.80;99.90
26621;DHT22;14253;44.840;10.444;2023-10-31T12:37:48;20.90;99.90
26621;DHT22;14253;44.840;10.444;2023-10-31T12:40:18;20.90;99.90
26621;DHT22;14253;44.840;10.444;2023-10-31T12:42:46;20.90;99.90
26621;DHT22;14253;44.840;10.444;2023-10-31T12:45:12;21.00;99.90
26621;DHT22;14253;44.840;10.444;2023-10-31T12:47:39;21.00;99.90
26621;DHT22;14253;44.840;10.444;2023-10-31T12:50:11;21.10;99.90
26621;DHT22;14253;44.840;10.444;2023-10-31T12:52:50;21.00;99.90
26621;DHT22;14253;44.840;10.444;2023-10-31T12:55:18;21.00;99.90
26621;DHT22;14253;44.840;10.444;2023-10-31T12:57:44;21.00;99.90
26621;DHT22;14253;44.840;10.444;2023-10-31T13:00:16;21.10;99.90
26621;DHT22;14253;44.840;10.444;2023-10-31T13:02:58;21.10;99.90
26621;DHT22;14253;44.840;10.444;2023-10-31T13:05:26;21.10;99.90
26621;DHT22;14253;44.840;10.444;2023-10-31T13:07:53;21.20;99.90
26621;DHT22;14253;44.840;10.444;2023-10-31T13:10:25;21.10;99.90
26621;DHT22;14253;44.840;10.444;2023-10-31T13:12:52;21.10;99.90
26621;DHT22;14253;44.840;10.444;2023-10-31T13:15:23;21.20;99.90
26621;DHT22;14253;44.840;10.444;2023-10-31T13:17:50;21.00;99.90
26621;DHT22;14253;44.840;10.444;2023-10-31T13:20:17;21.10;99.90
26621;DHT22;14253;44.840;10.444;2023-10-31T13:22:44;21.10;99.90
26621;DHT22;14253;44.840;10.444;2023-10-31T13:25:12;21.20;99.90
26621;DHT22;14253;44.840;10.444;2023-10-31T13:27:39;21.20;99.90
26621;DHT22;14253;44.840;10.444;2023-10-31T13:30:12;21.20;99.90
26621;DHT22;14253;44.840;10.444;2023-10-31T13:32:42;21.20;99.90
26621;DHT22;14253;44.840;10.444;2023-10-31T13:35:08;21.20;99.90
26621;DHT22;14253;44.840;10.444;2023-10-31T13:37:37;21.20;99.90
26621;DHT22;14253;44.840;10.444;2023-10-31T13:40:04;21.20;99.90
26621;DHT22;14253;44.840;10.444;2023-10-31T13:42:30;21.20;99.90
26621;DHT22;14253;44.840;10.444;2023-10-31T13:44:56;21.20;99.90
26621;DHT22;14253;44.840;10.444;2023-10-31T13:47:22;21.20;99.90
26621;DHT22;14253;44.840;10.444;2023-10-31T13:49:48;21.20;99.90
26621;DHT22;14253;44.840;10.444;2023-10-31T13:52:14;21.20;99.90
26621;DHT22;14253;44.840;10.444;2023-10-31T13:54:42;21.20;99.90
26621;DHT22;14253;44.840;10.444;2023-10-31T13:57:09;21.30;99.90
26621;DHT22;14253;44.840;10.444;2023-10-31T13:59:35;21.30;99.90
26621;DHT22;14253;44.840;10.444;2023-10-31T14:02:01;21.30;99.90
26621;DHT22;14253;44.840;10.444;2023-10-31T14:04:27;21.40;99.90
26621;DHT22;14253;44.840;10.444;2023-10-31T14:06:54;21.40;99.90
26621;DHT22;14253;44.840;10.444;2023-10-31T14:09:20;21.50;99.90
26621;DHT22;14253;44.840;10.444;2023-10-31T14:11:46;21.50;99.90
26621;DHT22;14253;44.840;10.444;2023-10-31T14:14:12;21.60;99.90
26621;DHT22;14253;44.840;10.444;2023-10-31T14:16:40;21.80;99.90
26621;DHT22;14253;44.840;10.444;2023-10-31T14:19:06;21.80;99.90
26621;DHT22;14253;44.840;10.444;2023-10-31T14:21:36;21.90;99.90
26621;DHT22;14253;44.840;10.444;2023-10-31T14:24:03;21.90;99.90
26621;DHT22;14253;44.840;10.444;2023-10-31T14:26:30;21.70;99.90
26621;DHT22;14253;44.840;10.444;2023-10-31T14:28:58;21.50;99.90
26621;DHT22;14253;44.840;10.444;2023-10-31T14:31:24;21.60;99.90
26621;DHT22;14253;44.840;10.444;2023-10-31T14:33:50;21.70;99.90
26621;DHT22;14253;44.840;10.444;2023-10-31T14:36:16;21.60;99.90
26621;DHT22;14253;44.840;10.444;2023-10-31T14:38:42;21.40;99.90
26621;DHT22;14253;44.840;10.444;2023-10-31T14:41:08;21.30;99.90
26621;DHT22;14253;44.840;10.444;2023-10-31T14:43:35;21.10;99.90
26621;DHT22;14253;44.840;10.444;2023-10-31T14:46:01;21.10;99.90
26621;DHT22;14253;44.840;10.444;2023-10-31T14:48:27;21.00;99.90
26621;DHT22;14253;44.840;10.444;2023-10-31T14:50:54;21.20;99.90
26621;DHT22;14253;44.840;10.444;2023-10-31T14:53:20;21.40;99.90
26621;DHT22;14253;44.840;10.444;2023-10-31T14:55:46;21.70;99.90
26621;DHT22;14253;44.840;10.444;2023-10-31T14:58:13;22.10;99.90
26621;DHT22;14253;44.840;10.444;2023-10-31T15:00:39;22.10;99.90
26621;DHT22;14253;44.840;10.444;2023-10-31T15:03:05;21.80;99.90
26621;DHT22;14253;44.840;10.444;2023-10-31T15:05:31;21.30;99.90
26621;DHT22;14253;44.840;10.444;2023-10-31T15:07:57;21.00;99.90
26621;DHT22;14253;44.840;10.444;2023-10-31T15:10:24;20.60;99.90
26621;DHT22;14253;44.840;10.444;2023-10-31T15:12:51;20.50;99.90